Time;durP1;ratioP1;P1;durP2;ratioP2;P2;SDS_P1;SDS_P2;PMS_P1;PMS_P2;Temp;Humidity;BMP_temperature;BMP_pressure;BME280_temperature;BME280_humidity;BME280_pressure;Samples;Min_cycle;Max_cycle;Signal;HPM_P1;HPM_P2
2022/03/02 00:00:04;;;;;;;9.23;8.30;;;-1.60;99.90;;;;;;5082899;28;20188;-75
2022/03/02 00:02:29;;;;;;;10.83;8.67;;;-1.50;99.90;;;;;;5085585;28;20359;-74
2022/03/02 00:04:55;;;;;;;9.63;7.83;;;-1.50;99.90;;;;;;5086322;28;20201;-73
2022/03/02 00:07:21;;;;;;;10.33;7.63;;;-1.60;99.90;;;;;;5082625;28;20672;-75
2022/03/02 00:09:46;;;;;;;11.83;8.07;;;-1.60;99.90;;;;;;5085524;28;20202;-75
2022/03/02 00:12:12;;;;;;;11.80;7.67;;;-1.60;99.90;;;;;;5087637;28;20269;-74
2022/03/02 00:14:38;;;;;;;9.83;8.47;;;-1.60;99.90;;;;;;5089278;28;20186;-75
2022/03/02 00:17:04;;;;;;;10.93;7.77;;;-1.70;99.90;;;;;;5084045;28;20657;-73
2022/03/02 00:19:30;;;;;;;9.87;8.43;;;-1.80;99.90;;;;;;5084576;28;20206;-73
2022/03/02 00:21:55;;;;;;;8.63;7.60;;;-1.80;99.90;;;;;;5087230;28;20576;-75
2022/03/02 00:24:21;;;;;;;8.13;7.27;;;-1.90;99.90;;;;;;5086108;28;20263;-75
2022/03/02 00:26:47;;;;;;;9.17;7.60;;;-1.90;99.90;;;;;;5084096;28;20768;-74
2022/03/02 00:29:12;;;;;;;9.00;8.10;;;-1.90;99.90;;;;;;5091774;28;20656;-74
2022/03/02 00:31:38;;;;;;;9.40;8.00;;;-1.90;99.90;;;;;;5091079;28;20202;-74
2022/03/02 00:34:03;;;;;;;8.67;7.40;;;-2.00;99.90;;;;;;5081878;28;20194;-75
2022/03/02 00:36:29;;;;;;;9.20;8.20;;;-2.00;99.90;;;;;;5080118;28;20190;-76
2022/03/02 00:38:55;;;;;;;9.33;7.63;;;-2.00;99.90;;;;;;5082864;28;20175;-76
2022/03/02 00:41:21;;;;;;;11.67;7.53;;;-2.00;99.90;;;;;;5082263;28;20258;-76
2022/03/02 00:43:47;;;;;;;10.60;8.10;;;-2.00;99.90;;;;;;5084384;28;20193;-76
2022/03/02 00:46:14;;;;;;;9.77;8.27;;;-2.00;99.90;;;;;;5079961;28;20546;-76
2022/03/02 00:48:40;;;;;;;11.30;9.00;;;-2.00;99.90;;;;;;5089080;28;20213;-76
2022/03/02 00:51:06;;;;;;;11.53;8.33;;;-2.10;99.90;;;;;;5081768;28;20233;-76
2022/03/02 00:53:32;;;;;;;9.37;7.90;;;-2.10;99.90;;;;;;5088785;28;20171;-76
2022/03/02 00:55:57;;;;;;;11.80;8.30;;;-2.20;99.90;;;;;;5086507;28;20309;-76
2022/03/02 00:58:23;;;;;;;10.33;9.07;;;-2.20;99.90;;;;;;5087223;28;20178;-76
2022/03/02 01:00:48;;;;;;;12.90;8.07;;;-2.20;99.90;;;;;;5081674;28;20215;-76
2022/03/02 01:03:14;;;;;;;11.43;8.13;;;-2.20;99.90;;;;;;5085207;28;20263;-76
2022/03/02 01:05:40;;;;;;;9.90;8.27;;;-2.20;99.90;;;;;;5082734;28;20637;-76
2022/03/02 01:08:06;;;;;;;12.37;8.23;;;-2.20;99.90;;;;;;5090391;28;20170;-75
2022/03/02 01:10:32;;;;;;;9.17;8.23;;;-2.20;99.90;;;;;;5084289;28;20210;-76
2022/03/02 01:12:57;;;;;;;11.17;8.70;;;-2.30;99.90;;;;;;5080457;28;20208;-77
2022/03/02 01:15:23;;;;;;;9.27;7.90;;;-2.30;99.90;;;;;;5082831;28;20182;-76
2022/03/02 01:17:49;;;;;;;12.33;7.83;;;-2.30;99.90;;;;;;5084395;28;20257;-77
2022/03/02 01:20:15;;;;;;;12.33;8.87;;;-2.30;99.90;;;;;;5078998;28;20243;-77
2022/03/02 01:22:41;;;;;;;10.13;8.20;;;-2.40;99.90;;;;;;5087377;28;20190;-77
2022/03/02 01:25:08;;;;;;;10.87;8.10;;;-2.40;99.90;;;;;;5089923;28;20307;-77
2022/03/02 01:27:34;;;;;;;9.77;7.70;;;-2.50;99.90;;;;;;5089803;28;20183;-77
2022/03/02 01:30:00;;;;;;;11.73;7.70;;;-2.50;99.90;;;;;;5086315;28;20285;-77
2022/03/02 01:32:25;;;;;;;15.63;8.83;;;-2.40;99.90;;;;;;5081691;28;20324;-76
2022/03/02 01:34:51;;;;;;;10.47;8.30;;;-2.40;99.90;;;;;;5078006;28;20171;-77
2022/03/02 01:37:17;;;;;;;10.97;8.50;;;-2.50;99.90;;;;;;5085502;28;20170;-75
2022/03/02 01:39:43;;;;;;;10.80;8.73;;;-2.50;99.90;;;;;;5082280;28;20182;-76
2022/03/02 01:42:09;;;;;;;9.93;7.97;;;-2.50;99.90;;;;;;5081770;28;20191;-76
2022/03/02 01:44:36;;;;;;;11.00;8.50;;;-2.50;99.90;;;;;;5089253;28;20185;-76
2022/03/02 01:47:03;;;;;;;9.77;8.07;;;-2.50;99.90;;;;;;5079749;28;20182;-76
2022/03/02 01:49:29;;;;;;;8.67;7.87;;;-2.50;99.90;;;;;;5080355;28;20179;-75
2022/03/02 01:51:55;;;;;;;10.80;8.70;;;-2.50;99.90;;;;;;5088875;28;20243;-76
2022/03/02 01:54:20;;;;;;;10.77;7.90;;;-2.40;99.90;;;;;;5086055;28;20178;-75
2022/03/02 01:56:47;;;;;;;9.40;7.40;;;-2.30;99.90;;;;;;5088009;28;20583;-76
2022/03/02 01:59:13;;;;;;;9.57;7.57;;;-2.30;99.90;;;;;;5085843;28;20189;-75
2022/03/02 02:01:39;;;;;;;11.77;7.80;;;-2.30;99.90;;;;;;5086540;28;20728;-76
2022/03/02 02:04:05;;;;;;;10.30;8.07;;;-2.40;99.90;;;;;;5084498;28;20278;-76
2022/03/02 02:06:31;;;;;;;9.93;7.57;;;-2.40;99.90;;;;;;5077493;28;20207;-75
2022/03/02 02:09:02;;;;;;;8.83;7.77;;;-2.50;99.90;;;;;;5085075;28;20211;-76
2022/03/02 02:11:30;;;;;;;10.03;8.13;;;-2.50;99.90;;;;;;5089911;28;20255;-76
2022/03/02 02:13:56;;;;;;;10.47;8.57;;;-2.60;99.90;;;;;;5081735;28;20523;-76
2022/03/02 02:16:22;;;;;;;8.07;7.23;;;-2.70;99.90;;;;;;5081169;28;20254;-76
2022/03/02 02:18:50;;;;;;;10.07;8.13;;;-2.80;99.90;;;;;;5088564;28;20201;-76
2022/03/02 02:21:16;;;;;;;12.70;8.60;;;-2.80;99.90;;;;;;5081864;28;20275;-77
2022/03/02 02:23:42;;;;;;;9.47;8.07;;;-2.80;99.90;;;;;;5082542;28;20257;-77
2022/03/02 02:26:07;;;;;;;12.63;8.33;;;-2.90;99.90;;;;;;5081791;28;20313;-75
2022/03/02 02:28:33;;;;;;;9.33;8.17;;;-2.80;99.90;;;;;;5081329;28;20266;-77
2022/03/02 02:31:02;;;;;;;13.03;8.17;;;-2.80;99.90;;;;;;5083126;28;20197;-76
2022/03/02 02:33:28;;;;;;;9.20;8.30;;;-2.70;99.90;;;;;;5085343;28;20171;-75
2022/03/02 02:35:54;;;;;;;8.73;7.83;;;-2.70;99.90;;;;;;5083518;28;20171;-76
2022/03/02 02:38:23;;;;;;;10.00;7.87;;;-2.60;99.90;;;;;;5081020;28;20183;-76
2022/03/02 02:40:51;;;;;;;9.00;8.13;;;-2.50;99.90;;;;;;5081873;28;20182;-77
2022/03/02 02:43:19;;;;;;;10.07;8.33;;;-2.50;99.90;;;;;;5084405;28;20178;-76
2022/03/02 02:45:45;;;;;;;10.40;7.90;;;-2.50;99.90;;;;;;5082058;28;20179;-77
2022/03/02 02:48:11;;;;;;;12.10;8.80;;;-2.60;99.90;;;;;;5084827;28;20202;-77
2022/03/02 02:50:37;;;;;;;10.03;8.13;;;-2.70;99.90;;;;;;5083553;28;20260;-76
2022/03/02 02:53:06;;;;;;;11.13;8.27;;;-2.80;99.90;;;;;;5082926;28;20191;-77
2022/03/02 02:55:33;;;;;;;9.60;8.10;;;-2.80;99.90;;;;;;5084164;28;20676;-76
2022/03/02 02:57:59;;;;;;;9.30;7.43;;;-2.80;99.90;;;;;;5083202;28;20174;-75
2022/03/02 03:00:30;;;;;;;9.30;8.27;;;-2.80;99.90;;;;;;5082612;28;20188;-77
2022/03/02 03:02:58;;;;;;;9.70;8.07;;;-2.80;99.90;;;;;;5080802;28;20635;-77
2022/03/02 03:05:26;;;;;;;8.83;7.30;;;-2.80;99.90;;;;;;5083899;28;20175;-79
2022/03/02 03:07:53;;;;;;;8.53;7.60;;;-2.70;99.90;;;;;;5083675;28;20182;-79
2022/03/02 03:10:19;;;;;;;9.60;8.17;;;-2.70;99.90;;;;;;5077060;28;20203;-79
2022/03/02 03:12:46;;;;;;;11.33;9.10;;;-2.60;99.90;;;;;;5084532;28;20197;-79
2022/03/02 03:15:14;;;;;;;12.53;8.47;;;-2.80;99.90;;;;;;5083663;28;20179;-79
2022/03/02 03:17:41;;;;;;;8.70;7.77;;;-2.90;99.90;;;;;;5082975;28;20171;-79
2022/03/02 03:20:09;;;;;;;9.03;7.83;;;-3.00;99.90;;;;;;5079090;28;20791;-78
2022/03/02 03:22:35;;;;;;;9.17;8.23;;;-2.90;99.90;;;;;;5077607;28;20199;-78
2022/03/02 03:25:02;;;;;;;9.93;7.57;;;-2.90;99.90;;;;;;5085308;28;20679;-78
2022/03/02 03:27:28;;;;;;;10.77;8.43;;;-2.80;99.90;;;;;;5082494;28;20546;-79
2022/03/02 03:29:54;;;;;;;9.77;8.07;;;-2.80;99.90;;;;;;5078549;28;20203;-79
2022/03/02 03:32:20;;;;;;;10.30;8.20;;;-2.80;99.90;;;;;;5079748;28;20281;-78
2022/03/02 03:34:46;;;;;;;9.37;7.50;;;-2.80;99.90;;;;;;5083737;28;20258;-79
2022/03/02 03:37:12;;;;;;;10.40;7.93;;;-2.90;99.90;;;;;;5084236;28;20235;-77
2022/03/02 03:39:38;;;;;;;12.37;8.60;;;-2.90;99.90;;;;;;5084635;28;20178;-77
2022/03/02 03:42:04;;;;;;;9.90;8.27;;;-2.90;99.90;;;;;;5086053;28;20191;-79
2022/03/02 03:44:29;;;;;;;10.97;8.17;;;-2.90;99.90;;;;;;5087191;28;20183;-79
2022/03/02 03:46:55;;;;;;;11.80;9.37;;;-3.00;99.90;;;;;;5083864;28;20220;-79
2022/03/02 03:49:20;;;;;;;7.50;6.37;;;-3.10;99.90;;;;;;5085785;28;20213;-78
2022/03/02 03:51:46;;;;;;;9.13;8.13;;;-3.10;99.90;;;;;;5086342;28;20252;-78
2022/03/02 03:54:12;;;;;;;10.33;8.33;;;-3.10;99.90;;;;;;5089260;28;20175;-79
2022/03/02 03:56:38;;;;;;;8.87;7.20;;;-3.00;99.90;;;;;;5086099;28;20208;-79
2022/03/02 03:59:04;;;;;;;9.17;8.23;;;-3.00;99.90;;;;;;5082522;28;20214;-79
2022/03/02 04:01:30;;;;;;;9.97;7.90;;;-2.90;99.90;;;;;;5083284;28;20210;-79
2022/03/02 04:03:56;;;;;;;9.07;7.60;;;-2.90;99.90;;;;;;5079292;28;20190;-80
2022/03/02 04:06:22;;;;;;;12.97;9.00;;;-3.00;99.90;;;;;;5081501;28;20181;-80
2022/03/02 04:08:47;;;;;;;9.87;8.60;;;-3.10;99.90;;;;;;5074199;28;20197;-79
2022/03/02 04:11:13;;;;;;;9.30;7.63;;;-3.20;99.90;;;;;;5080793;28;20206;-79
2022/03/02 04:13:38;;;;;;;10.30;8.53;;;-3.20;99.90;;;;;;5090901;28;20209;-78
2022/03/02 04:16:05;;;;;;;11.87;8.13;;;-3.10;99.90;;;;;;5088288;28;20220;-76
2022/03/02 04:18:33;;;;;;;10.30;8.40;;;-3.20;99.90;;;;;;5085056;28;20186;-78
2022/03/02 04:21:00;;;;;;;9.37;7.97;;;-3.30;99.90;;;;;;5079121;28;20559;-78
2022/03/02 04:23:26;;;;;;;9.40;8.07;;;-3.30;99.90;;;;;;5080700;28;20183;-78
2022/03/02 04:25:52;;;;;;;10.60;8.50;;;-3.30;99.90;;;;;;5088352;28;20669;-78
2022/03/02 04:28:18;;;;;;;9.43;8.53;;;-3.30;99.90;;;;;;5084433;28;20178;-76
2022/03/02 04:30:44;;;;;;;10.63;8.33;;;-3.30;99.90;;;;;;5092992;28;20210;-76
2022/03/02 04:33:10;;;;;;;10.30;8.57;;;-3.30;99.90;;;;;;5081409;28;20980;-76
2022/03/02 04:35:35;;;;;;;11.33;8.20;;;-3.30;99.90;;;;;;5086370;28;20293;-76
2022/03/02 04:38:03;;;;;;;11.33;9.27;;;-3.20;99.90;;;;;;5080551;28;20645;-76
2022/03/02 04:40:29;;;;;;;10.83;9.00;;;-3.30;99.90;;;;;;5078861;28;20197;-76
2022/03/02 04:42:55;;;;;;;11.27;8.13;;;-3.30;99.90;;;;;;5075600;28;20732;-76
2022/03/02 04:45:25;;;;;;;14.20;8.27;;;-3.20;99.90;;;;;;5088245;28;20187;-76
2022/03/02 04:47:52;;;;;;;11.37;8.77;;;-3.20;99.90;;;;;;5085092;28;20215;-76
2022/03/02 04:50:19;;;;;;;9.60;8.43;;;-3.20;99.90;;;;;;5076814;28;20560;-76
2022/03/02 04:52:45;;;;;;;8.77;7.87;;;-3.20;99.90;;;;;;5083143;28;20285;-76
2022/03/02 04:55:12;;;;;;;15.57;8.73;;;-3.20;99.90;;;;;;5083771;28;20224;-76
2022/03/02 04:57:42;;;;;;;10.60;8.90;;;-3.20;99.90;;;;;;5089392;28;20181;-76
2022/03/02 05:00:15;;;;;;;11.10;8.93;;;-3.10;99.90;;;;;;5079608;28;20814;-76
2022/03/02 05:02:41;;;;;;;9.93;8.37;;;-3.20;99.90;;;;;;5084838;28;20225;-76
2022/03/02 05:05:09;;;;;;;10.33;8.53;;;-3.10;99.90;;;;;;5082514;28;20187;-76
2022/03/02 05:07:34;;;;;;;13.07;9.53;;;-3.10;99.90;;;;;;5084166;28;20537;-76
2022/03/02 05:10:00;;;;;;;12.20;9.27;;;-3.10;99.90;;;;;;5083448;28;20265;-76
2022/03/02 05:12:26;;;;;;;10.30;8.27;;;-3.10;99.90;;;;;;5079099;28;20633;-76
2022/03/02 05:14:52;;;;;;;11.90;8.43;;;-3.00;99.90;;;;;;5085988;28;20206;-76
2022/03/02 05:17:18;;;;;;;13.20;8.70;;;-2.90;99.90;;;;;;5080906;28;20179;-76
2022/03/02 05:19:43;;;;;;;10.50;8.97;;;-2.80;99.90;;;;;;5082263;28;20178;-76
2022/03/02 05:22:09;;;;;;;15.27;9.83;;;-2.80;99.90;;;;;;5072989;28;20278;-76
2022/03/02 05:24:35;;;;;;;11.50;8.80;;;-2.80;99.90;;;;;;5075918;28;20680;-76
2022/03/02 05:27:01;;;;;;;9.83;8.77;;;-2.80;99.90;;;;;;5079646;28;20257;-76
2022/03/02 05:29:26;;;;;;;12.20;8.83;;;-2.80;99.90;;;;;;5078664;28;20189;-76
2022/03/02 05:31:52;;;;;;;13.20;8.93;;;-2.80;99.90;;;;;;5074169;28;20270;-76
2022/03/02 05:34:17;;;;;;;13.37;9.20;;;-2.80;99.90;;;;;;5074479;28;20182;-76
2022/03/02 05:36:43;;;;;;;12.37;9.67;;;-2.70;99.90;;;;;;5079889;28;20191;-76
2022/03/02 05:39:09;;;;;;;11.47;8.87;;;-2.60;99.90;;;;;;5075837;28;20657;-75
2022/03/02 05:41:34;;;;;;;10.57;7.90;;;-2.50;99.90;;;;;;5083722;28;20339;-75
2022/03/02 05:44:01;;;;;;;9.83;8.63;;;-2.50;99.90;;;;;;5085501;28;20178;-75
2022/03/02 05:46:27;;;;;;;13.23;9.50;;;-2.40;99.90;;;;;;5084697;28;20606;-75
2022/03/02 05:48:53;;;;;;;12.40;9.70;;;-2.40;99.90;;;;;;5080250;28;20197;-75
2022/03/02 05:51:20;;;;;;;12.37;8.90;;;-2.40;99.90;;;;;;5079216;28;20199;-75
2022/03/02 05:53:45;;;;;;;12.37;8.77;;;-2.40;99.90;;;;;;5075011;28;20174;-74
2022/03/02 05:56:12;;;;;;;13.33;9.17;;;-2.40;99.90;;;;;;5084184;28;20189;-77
2022/03/02 05:58:37;;;;;;;11.00;8.67;;;-2.40;99.90;;;;;;5082133;28;20208;-78
2022/03/02 06:01:03;;;;;;;17.07;9.40;;;-2.40;99.90;;;;;;5081620;28;20246;-78
2022/03/02 06:03:29;;;;;;;12.93;9.57;;;-2.40;99.90;;;;;;5082416;28;20201;-83
2022/03/02 06:05:55;;;;;;;13.10;9.60;;;-2.40;99.90;;;;;;5087264;28;20276;-82
2022/03/02 06:08:21;;;;;;;11.27;9.10;;;-2.50;99.90;;;;;;5088434;28;20603;-81
2022/03/02 06:10:48;;;;;;;11.57;8.80;;;-2.50;99.90;;;;;;5088418;28;20198;-77
2022/03/02 06:13:14;;;;;;;12.87;9.13;;;-2.40;99.90;;;;;;5089969;28;20187;-81
2022/03/02 06:15:42;;;;;;;9.77;8.53;;;-2.30;99.90;;;;;;5080788;28;20183;-81
2022/03/02 06:18:07;;;;;;;10.63;8.20;;;-2.20;99.90;;;;;;5077418;28;20183;-80
2022/03/02 06:20:33;;;;;;;10.97;9.07;;;-2.20;99.90;;;;;;5083935;28;20187;-80
2022/03/02 06:22:59;;;;;;;11.20;8.83;;;-2.10;99.90;;;;;;5086655;28;20605;-81
2022/03/02 06:25:26;;;;;;;12.37;8.70;;;-2.10;99.90;;;;;;5082919;28;20171;-81
2022/03/02 06:27:52;;;;;;;12.40;9.27;;;-1.90;99.90;;;;;;5081406;28;20183;-81
2022/03/02 06:30:17;;;;;;;9.43;8.53;;;-1.80;99.90;;;;;;5073733;28;20213;-80
2022/03/02 06:32:43;;;;;;;11.70;7.83;;;-1.60;99.90;;;;;;5077127;28;20255;-81
2022/03/02 06:35:09;;;;;;;10.97;9.27;;;-1.50;99.90;;;;;;5082190;28;20587;-79
2022/03/02 06:37:35;;;;;;;12.50;8.97;;;-1.40;99.90;;;;;;5081506;28;20179;-79
2022/03/02 06:40:11;;;;;;;9.77;8.77;;;-1.30;99.90;;;;;;5076798;28;20215;-76
2022/03/02 06:43:02;;;;;;;11.27;8.37;;;-1.30;99.90;;;;;;5082091;28;20202;-74
2022/03/02 06:45:43;;;;;;;12.30;9.47;;;-1.30;99.90;;;;;;5087370;28;20262;-77
2022/03/02 06:48:16;;;;;;;12.13;9.40;;;-1.30;99.90;;;;;;5091286;28;20206;-77
2022/03/02 06:50:44;;;;;;;10.50;8.07;;;-1.20;99.90;;;;;;5094894;28;20198;-77
2022/03/02 06:53:15;;;;;;;15.50;8.77;;;-1.10;99.90;;;;;;5083459;28;20205;-75
2022/03/02 06:55:44;;;;;;;11.50;8.53;;;-0.90;99.90;;;;;;5078945;28;20174;-74
2022/03/02 06:58:11;;;;;;;13.07;9.13;;;-0.70;99.90;;;;;;5079829;28;20186;-74
2022/03/02 07:00:38;;;;;;;12.03;9.87;;;-0.70;99.90;;;;;;5090139;28;20175;-74
2022/03/02 07:03:10;;;;;;;16.00;9.70;;;-0.60;99.90;;;;;;5079901;28;20693;-74
2022/03/02 07:05:37;;;;;;;11.97;8.63;;;-0.60;99.90;;;;;;5078790;28;20706;-74
2022/03/02 07:08:08;;;;;;;12.67;8.73;;;-0.50;99.90;;;;;;5081278;28;20300;-75
2022/03/02 07:10:35;;;;;;;11.83;9.13;;;-0.40;99.90;;;;;;5082527;28;20675;-75
2022/03/02 07:13:04;;;;;;;10.93;8.63;;;-0.20;99.90;;;;;;5082789;28;20248;-74
2022/03/02 07:15:32;;;;;;;10.90;9.50;;;0.00;99.90;;;;;;5089207;28;20183;-75
2022/03/02 07:18:02;;;;;;;11.33;9.30;;;0.20;99.90;;;;;;5085463;28;20359;-75
2022/03/02 07:20:28;;;;;;;13.33;9.17;;;0.40;99.90;;;;;;5089824;28;20186;-74
2022/03/02 07:22:55;;;;;;;15.60;9.63;;;0.40;99.90;;;;;;5088858;28;20202;-75
2022/03/02 07:25:26;;;;;;;13.23;10.10;;;0.60;99.90;;;;;;5088745;28;20649;-74
2022/03/02 07:27:55;;;;;;;11.93;8.97;;;0.80;99.90;;;;;;5088812;28;20182;-74
2022/03/02 07:30:21;;;;;;;9.90;8.90;;;0.90;99.90;;;;;;5083801;28;20199;-72
2022/03/02 07:32:47;;;;;;;13.27;10.20;;;1.20;99.90;;;;;;5094138;28;20222;-74
2022/03/02 07:35:15;;;;;;;16.47;10.40;;;1.20;99.90;;;;;;5088339;28;20179;-74
2022/03/02 07:37:44;;;;;;;11.70;8.97;;;1.30;99.90;;;;;;5087555;28;20181;-77
2022/03/02 07:40:10;;;;;;;12.60;9.87;;;1.40;99.90;;;;;;5088110;28;20179;-74
2022/03/02 07:42:37;;;;;;;10.60;8.77;;;1.50;99.90;;;;;;5086357;28;20272;-78
2022/03/02 07:45:03;;;;;;;14.73;9.90;;;1.50;99.90;;;;;;5094770;28;20378;-77
2022/03/02 07:47:29;;;;;;;12.30;8.97;;;1.70;99.90;;;;;;5094903;28;20183;-76
2022/03/02 07:49:54;;;;;;;11.10;9.13;;;2.00;99.90;;;;;;5090312;28;20275;-79
2022/03/02 07:52:25;;;;;;;10.80;9.17;;;2.20;99.90;;;;;;5083794;28;20210;-78
2022/03/02 07:54:55;;;;;;;13.10;9.63;;;2.50;99.90;;;;;;5085272;28;20637;-74
2022/03/02 07:57:23;;;;;;;13.77;10.13;;;2.40;99.90;;;;;;5085911;28;20521;-78
2022/03/02 07:59:50;;;;;;;11.50;9.97;;;2.50;99.90;;;;;;5091128;28;20227;-78
2022/03/02 08:02:19;;;;;;;14.97;10.57;;;2.80;99.90;;;;;;5090813;28;20282;-80
2022/03/02 08:04:50;;;;;;;12.70;10.03;;;2.60;99.90;;;;;;5089859;28;20183;-75
2022/03/02 08:07:16;;;;;;;11.23;9.13;;;2.50;99.90;;;;;;5081069;28;20179;-76
2022/03/02 08:09:42;;;;;;;12.83;10.07;;;2.60;99.90;;;;;;5082157;28;20177;-76
2022/03/02 08:12:08;;;;;;;9.73;8.73;;;2.60;99.90;;;;;;5079832;28;20254;-75
2022/03/02 08:14:34;;;;;;;12.20;9.80;;;3.00;99.90;;;;;;5089425;28;20193;-76
2022/03/02 08:16:59;;;;;;;11.90;10.03;;;3.40;99.90;;;;;;5088463;28;20171;-76
2022/03/02 08:19:25;;;;;;;10.13;8.97;;;3.70;99.90;;;;;;5084849;28;20181;-76
2022/03/02 08:22:01;;;;;;;15.53;10.73;;;3.90;99.90;;;;;;5086173;28;20202;-76
2022/03/02 08:24:27;;;;;;;12.57;9.83;;;4.00;99.90;;;;;;5090213;28;20174;-76
2022/03/02 08:26:57;;;;;;;12.20;10.00;;;3.90;99.90;;;;;;5083521;28;20181;-76
2022/03/02 08:29:26;;;;;;;16.47;10.53;;;4.00;99.90;;;;;;5083946;28;20175;-76
2022/03/02 08:31:57;;;;;;;11.97;10.00;;;4.40;99.90;;;;;;5077662;28;20715;-76
2022/03/02 08:34:23;;;;;;;15.93;10.60;;;4.70;99.90;;;;;;5087234;28;20170;-75
2022/03/02 08:36:52;;;;;;;14.93;10.20;;;4.90;99.90;;;;;;5091259;28;20171;-77
2022/03/02 08:39:18;;;;;;;18.00;10.80;;;5.10;99.90;;;;;;5089850;28;20171;-75
2022/03/02 08:41:43;;;;;;;16.47;10.40;;;4.90;99.90;;;;;;5077932;28;20350;-75
2022/03/02 08:44:13;;;;;;;17.90;9.97;;;5.10;99.90;;;;;;5080898;28;20187;-74
2022/03/02 08:46:40;;;;;;;16.77;10.90;;;5.10;99.90;;;;;;5079780;28;20198;-74
2022/03/02 08:49:05;;;;;;;19.43;11.70;;;5.20;99.90;;;;;;5081366;28;20262;-73
2022/03/02 08:51:34;;;;;;;19.30;11.87;;;5.10;99.90;;;;;;5080711;28;20397;-73
2022/03/02 08:54:02;;;;;;;20.47;10.60;;;5.30;99.90;;;;;;5079323;28;20195;-75
2022/03/02 08:56:29;;;;;;;16.83;10.87;;;5.60;99.90;;;;;;5076941;28;20706;-73
2022/03/02 08:58:55;;;;;;;13.43;10.00;;;5.60;99.90;;;;;;5084670;28;20551;-75
2022/03/02 09:01:21;;;;;;;17.93;11.60;;;5.90;99.90;;;;;;5075456;28;20203;-74
2022/03/02 09:03:51;;;;;;;12.73;10.47;;;6.30;99.90;;;;;;5082096;28;20193;-75
2022/03/02 09:06:20;;;;;;;16.50;9.80;;;6.50;99.90;;;;;;5077247;28;20258;-75
2022/03/02 09:08:46;;;;;;;14.35;10.02;;;6.80;99.90;;;;;;5084560;28;20175;-74
2022/03/02 09:11:12;;;;;;;14.77;10.97;;;7.00;99.90;;;;;;5079084;28;20286;-75
2022/03/02 09:13:38;;;;;;;12.90;10.17;;;7.10;99.40;;;;;;5083586;28;20548;-76
2022/03/02 09:16:05;;;;;;;21.38;10.23;;;7.10;99.40;;;;;;5080326;28;20693;-75
2022/03/02 09:18:31;;;;;;;15.48;11.32;;;7.40;96.90;;;;;;5080260;28;20183;-76
2022/03/02 09:21:02;;;;;;;12.60;10.45;;;7.30;95.10;;;;;;5080216;28;20194;-76
2022/03/02 09:23:34;;;;;;;11.60;9.65;;;7.20;95.30;;;;;;5082916;28;20187;-74
2022/03/02 09:26:05;;;;;;;13.45;9.68;;;7.40;94.70;;;;;;5082902;28;20183;-75
2022/03/02 09:28:34;;;;;;;10.90;9.80;;;7.70;93.80;;;;;;5077658;28;20676;-76
2022/03/02 09:31:03;;;;;;;10.55;9.25;;;7.90;94.00;;;;;;5079612;28;20592;-75
2022/03/02 09:33:30;;;;;;;13.60;10.00;;;8.20;92.40;;;;;;5074757;28;20218;-74
2022/03/02 09:35:56;;;;;;;12.10;8.75;;;8.60;90.90;;;;;;5081403;28;21401;-80
2022/03/02 09:38:24;;;;;;;11.25;8.65;;;8.80;89.00;;;;;;5079261;28;20167;-76
2022/03/02 09:40:51;;;;;;;10.60;8.13;;;9.20;87.30;;;;;;5081328;28;20181;-77
2022/03/02 09:43:19;;;;;;;11.25;8.45;;;9.80;83.30;;;;;;5077291;28;20199;-73
2022/03/02 09:45:50;;;;;;;9.52;8.40;;;10.40;79.90;;;;;;5082018;28;20622;-74
2022/03/02 09:48:30;;;;;;;10.95;8.77;;;10.70;77.20;;;;;;5083273;28;20191;-77
2022/03/02 09:51:05;;;;;;;8.70;7.80;;;10.60;74.60;;;;;;5082897;28;20217;-74
2022/03/02 09:53:33;;;;;;;8.32;7.43;;;11.00;70.60;;;;;;5078861;28;20189;-75
2022/03/02 09:56:04;;;;;;;10.43;7.78;;;11.30;68.40;;;;;;5076240;28;20182;-75
2022/03/02 09:58:30;;;;;;;10.48;7.60;;;11.60;65.70;;;;;;5089423;28;20728;-75
2022/03/02 10:00:58;;;;;;;10.75;7.28;;;11.90;64.00;;;;;;5079562;28;20195;-75
2022/03/02 10:03:31;;;;;;;8.05;7.07;;;11.70;64.90;;;;;;5076291;28;20194;-79
2022/03/02 10:06:04;;;;;;;7.50;6.72;;;12.00;63.20;;;;;;5078994;28;20179;-78
2022/03/02 10:08:33;;;;;;;8.07;6.70;;;11.90;60.90;;;;;;5080388;28;20185;-78
2022/03/02 10:11:06;;;;;;;8.07;6.90;;;12.00;58.40;;;;;;5075849;28;21248;-77
2022/03/02 10:13:32;;;;;;;8.57;6.40;;;12.00;56.90;;;;;;5081647;28;20177;-78
2022/03/02 10:16:03;;;;;;;7.95;6.22;;;11.70;56.20;;;;;;5079216;28;20213;-78
2022/03/02 10:18:34;;;;;;;6.95;6.25;;;11.50;56.20;;;;;;5091299;28;20194;-78
2022/03/02 10:21:03;;;;;;;6.88;6.28;;;11.40;54.80;;;;;;5088796;28;20179;-77
2022/03/02 10:23:42;;;;;;;7.45;6.18;;;11.20;54.60;;;;;;5089161;28;20634;-78
2022/03/02 10:26:18;;;;;;;7.47;6.10;;;10.80;53.60;;;;;;5083900;28;20171;-78
2022/03/02 10:28:57;;;;;;;8.18;6.28;;;11.20;53.90;;;;;;5088499;28;20232;-78
2022/03/02 10:31:47;;;;;;;8.52;6.38;;;11.20;53.70;;;;;;5084951;28;20228;-78
2022/03/02 10:34:25;;;;;;;7.22;6.35;;;10.70;54.60;;;;;;5086049;28;20254;-78
2022/03/02 10:37:03;;;;;;;10.77;6.65;;;11.10;54.90;;;;;;5091374;28;20304;-78
2022/03/02 10:39:41;;;;;;;7.57;6.88;;;11.60;53.80;;;;;;5092730;28;20179;-77
2022/03/02 10:42:14;;;;;;;7.88;6.82;;;11.40;53.40;;;;;;5081593;28;20280;-77
2022/03/02 10:45:17;;;;;;;7.72;6.47;;;11.30;54.40;;;;;;5077324;28;20197;-75
2022/03/02 10:48:03;;;;;;;10.02;6.93;;;11.60;53.70;;;;;;5075343;28;20181;-78
2022/03/02 10:50:34;;;;;;;9.82;7.15;;;11.60;53.80;;;;;;5087735;28;20201;-78
2022/03/02 10:53:03;;;;;;;7.90;6.80;;;11.70;54.40;;;;;;5082896;28;20441;-78
2022/03/02 10:55:31;;;;;;;9.63;6.50;;;11.60;52.90;;;;;;5088988;28;20172;-78
2022/03/02 10:58:00;;;;;;;9.13;6.35;;;12.10;52.50;;;;;;5082975;28;20179;-77
2022/03/02 11:00:25;;;;;;;7.65;6.75;;;12.30;51.40;;;;;;5085157;28;20340;-78
2022/03/02 11:02:57;;;;;;;8.30;7.15;;;12.80;51.60;;;;;;5083469;28;20708;-77
2022/03/02 11:05:24;;;;;;;10.93;6.53;;;13.10;48.90;;;;;;5083483;28;20183;-77
2022/03/02 11:07:50;;;;;;;7.85;7.10;;;12.10;49.70;;;;;;5082840;28;20649;-77
2022/03/02 11:10:20;;;;;;;8.15;7.30;;;12.10;50.70;;;;;;5081371;28;20203;-77
2022/03/02 11:12:48;;;;;;;7.55;6.70;;;11.90;51.60;;;;;;5082118;28;20260;-76
2022/03/02 11:15:17;;;;;;;7.43;6.72;;;11.90;50.90;;;;;;5078448;28;20179;-74
2022/03/02 11:17:58;;;;;;;14.88;6.93;;;12.30;50.50;;;;;;5078904;28;20657;-76
2022/03/02 11:20:25;;;;;;;8.13;6.70;;;12.00;50.50;;;;;;5079157;28;20221;-76
2022/03/02 11:23:00;;;;;;;8.63;6.85;;;11.90;51.60;;;;;;5091812;28;20198;-77
2022/03/02 11:25:49;;;;;;;6.53;5.93;;;12.20;50.80;;;;;;5087508;28;20231;-77
2022/03/02 11:28:18;;;;;;;7.93;7.13;;;11.70;51.10;;;;;;5086121;28;20224;-76
2022/03/02 11:30:53;;;;;;;8.90;6.80;;;11.70;51.70;;;;;;5092734;28;20320;-78
2022/03/02 11:33:24;;;;;;;7.60;6.78;;;11.20;51.00;;;;;;5087002;28;20190;-74
2022/03/02 11:35:52;;;;;;;8.95;6.90;;;11.40;52.00;;;;;;5089001;28;21157;-74
2022/03/02 11:38:22;;;;;;;7.82;7.03;;;11.50;50.90;;;;;;5081217;28;20293;-74
2022/03/02 11:40:49;;;;;;;12.38;6.70;;;11.40;50.60;;;;;;5089837;28;20186;-77
2022/03/02 11:43:18;;;;;;;7.95;6.60;;;11.50;51.50;;;;;;5087536;28;20243;-77
2022/03/02 11:45:43;;;;;;;7.88;6.80;;;11.60;51.80;;;;;;5090908;28;20182;-74
2022/03/02 11:48:11;;;;;;;9.52;6.45;;;11.90;51.00;;;;;;5088103;28;20270;-75
2022/03/02 11:50:36;;;;;;;8.15;7.32;;;11.90;50.70;;;;;;5081513;28;20283;-75
2022/03/02 11:53:08;;;;;;;10.18;7.15;;;11.80;50.00;;;;;;5077961;28;20292;-75
2022/03/02 11:55:36;;;;;;;6.97;6.28;;;11.70;50.30;;;;;;5083935;28;20179;-76
2022/03/02 11:58:02;;;;;;;8.05;6.63;;;11.60;50.10;;;;;;5078173;28;20176;-74
2022/03/02 12:00:29;;;;;;;9.70;6.90;;;11.70;50.10;;;;;;5080358;28;20277;-75
2022/03/02 12:02:57;;;;;;;8.40;6.97;;;11.70;49.30;;;;;;5084503;28;20218;-77
2022/03/02 12:05:33;;;;;;;7.18;6.47;;;11.40;50.00;;;;;;5079825;28;20177;-76
2022/03/02 12:08:11;;;;;;;9.18;6.10;;;11.60;49.40;;;;;;5086205;28;20547;-75
2022/03/02 12:10:42;;;;;;;8.63;6.57;;;11.80;48.90;;;;;;5080298;28;20199;-75
2022/03/02 12:13:15;;;;;;;9.25;6.07;;;11.80;48.00;;;;;;5080742;28;20199;-75
2022/03/02 12:15:49;;;;;;;8.85;6.90;;;11.80;48.00;;;;;;5082650;28;20181;-74
2022/03/02 12:18:17;;;;;;;8.43;6.47;;;11.80;47.90;;;;;;5084776;28;20174;-75
2022/03/02 12:21:03;;;;;;;8.30;6.70;;;11.40;47.80;;;;;;5081498;28;20648;-75
2022/03/02 12:23:34;;;;;;;8.73;7.13;;;11.10;48.50;;;;;;5077820;28;20278;-73
2022/03/02 12:26:01;;;;;;;10.00;6.45;;;11.10;48.80;;;;;;5077616;28;20179;-73
2022/03/02 12:28:27;;;;;;;8.52;6.20;;;11.20;49.00;;;;;;5076467;28;20604;-74
2022/03/02 12:30:53;;;;;;;11.85;7.03;;;11.40;49.40;;;;;;5075166;28;20207;-74
2022/03/02 12:33:20;;;;;;;7.43;6.53;;;11.50;49.10;;;;;;5080761;28;20203;-73
2022/03/02 12:35:46;;;;;;;7.63;6.10;;;10.70;47.60;;;;;;5083379;28;20175;-74
2022/03/02 12:38:12;;;;;;;9.25;7.07;;;10.80;49.10;;;;;;5079015;28;20183;-74
2022/03/02 12:40:42;;;;;;;9.63;7.22;;;10.80;49.10;;;;;;5076006;28;20179;-74
2022/03/02 12:43:14;;;;;;;7.85;6.13;;;11.40;48.10;;;;;;5079193;28;20559;-74